createdAt,value
2018-03-25T00:00:47.671Z,100450.19
2018-03-25T00:03:15.797Z,100447.13
2018-03-25T00:05:43.895Z,100448.15
2018-03-25T00:08:12.069Z,100445.55
2018-03-25T00:10:40.179Z,100444.25
2018-03-25T00:13:08.269Z,100447.56
2018-03-25T00:15:36.404Z,100453.25
2018-03-25T00:18:04.505Z,100449.33
2018-03-25T00:20:32.687Z,100448.37
2018-03-25T00:23:00.826Z,100445.97
2018-03-25T00:25:28.916Z,100453.63
2018-03-25T00:27:57.061Z,100450.11
2018-03-25T00:30:25.174Z,100452.92
2018-03-25T00:32:53.275Z,100448.78
2018-03-25T00:35:21.531Z,100455.02
2018-03-25T00:37:49.630Z,100458.52
2018-03-25T00:40:17.786Z,100459.31
2018-03-25T00:42:45.911Z,100464.44
2018-03-25T00:45:14.051Z,100465.84
2018-03-25T00:47:42.126Z,100465.20
2018-03-25T00:50:10.246Z,100466.23
2018-03-25T00:52:38.351Z,100464.00
2018-03-25T00:55:06.446Z,100467.05
2018-03-25T00:57:34.575Z,100469.59
2018-03-25T01:00:02.692Z,100470.13
2018-03-25T01:02:30.798Z,100471.34
2018-03-25T01:04:58.993Z,100467.03
2018-03-25T01:07:27.124Z,100471.56
2018-03-25T01:09:55.221Z,100470.61
2018-03-25T01:12:23.325Z,100467.88
2018-03-25T01:14:51.442Z,100473.33
2018-03-25T01:17:19.588Z,100479.70
2018-03-25T01:19:47.737Z,100483.98
2018-03-25T01:22:16.167Z,100481.56
2018-03-25T01:24:44.680Z,100483.27
2018-03-25T01:27:12.778Z,100484.45
2018-03-25T01:29:40.924Z,100488.92
2018-03-25T01:32:09.012Z,100484.60
2018-03-25T01:34:37.110Z,100490.47
2018-03-25T01:37:05.231Z,100493.66
2018-03-25T01:39:33.318Z,100494.18
2018-03-25T01:42:01.450Z,100492.95
2018-03-25T01:44:29.645Z,100495.55
2018-03-25T01:46:57.738Z,100491.71
2018-03-25T01:49:25.835Z,100488.64
2018-03-25T01:51:53.942Z,100490.48
2018-03-25T01:54:22.040Z,100482.50
2018-03-25T01:56:50.288Z,100487.52
2018-03-25T01:59:18.368Z,100484.80
2018-03-25T02:01:46.462Z,100482.24
2018-03-25T02:04:14.600Z,100485.84
2018-03-25T02:06:42.718Z,100490.23
2018-03-25T02:09:10.837Z,100494.78
2018-03-25T02:11:38.938Z,100494.31
2018-03-25T02:14:07.076Z,100492.27
2018-03-25T02:16:35.228Z,100494.44
2018-03-25T02:19:03.356Z,100503.01
2018-03-25T02:21:31.475Z,100508.59
2018-03-25T02:24:00.518Z,100508.94
2018-03-25T02:26:28.648Z,100508.20
2018-03-25T02:28:56.762Z,100511.83
2018-03-25T02:31:24.849Z,100510.97
2018-03-25T02:33:53.046Z,100511.22
2018-03-25T02:36:21.114Z,100512.64
2018-03-25T02:38:49.210Z,100511.68
2018-03-25T02:41:18.051Z,100511.72
2018-03-25T02:43:46.146Z,100513.95
2018-03-25T02:46:14.287Z,100504.98
2018-03-25T02:48:42.625Z,100510.91
2018-03-25T02:51:10.722Z,100510.01
2018-03-25T02:53:38.816Z,100512.72
2018-03-25T02:56:06.934Z,100519.72
2018-03-25T02:58:35.066Z,100524.55
2018-03-25T03:01:03.209Z,100521.22
2018-03-25T03:03:31.332Z,100521.70
2018-03-25T03:05:59.439Z,100520.29
2018-03-25T03:08:27.545Z,100518.48
2018-03-25T03:10:56.262Z,100520.23
2018-03-25T03:13:24.378Z,100524.46
2018-03-25T03:15:52.482Z,100521.14
2018-03-25T03:18:20.609Z,100526.02
2018-03-25T03:20:48.787Z,100522.36
2018-03-25T03:23:16.940Z,100527.69
2018-03-25T03:25:45.101Z,100528.06
2018-03-25T03:28:13.199Z,100529.30
2018-03-25T03:30:41.304Z,100531.33
2018-03-25T03:33:09.458Z,100538.31
2018-03-25T03:35:37.559Z,100539.31
2018-03-25T03:38:05.653Z,100537.42
2018-03-25T03:40:33.902Z,100540.75
2018-03-25T03:43:02.033Z,100538.09
2018-03-25T03:45:30.130Z,100543.45
2018-03-25T03:47:58.261Z,100546.44
2018-03-25T03:50:26.355Z,100543.83
2018-03-25T03:52:54.440Z,100549.20
2018-03-25T03:55:23.227Z,100550.01
2018-03-25T03:57:51.385Z,100552.09
2018-03-25T04:00:19.464Z,100553.42
2018-03-25T04:02:47.591Z,100556.98
2018-03-25T04:05:15.695Z,100557.60
2018-03-25T04:07:43.778Z,100556.31
2018-03-25T04:10:12.010Z,100559.12
2018-03-25T04:12:40.175Z,100561.72
2018-03-25T04:15:08.295Z,100559.93
2018-03-25T04:17:36.625Z,100568.46
2018-03-25T04:20:04.717Z,100565.91
2018-03-25T04:22:33.568Z,100573.87
2018-03-25T04:25:01.707Z,100576.50
2018-03-25T04:27:29.805Z,100575.11
2018-03-25T04:29:57.950Z,100574.02
2018-03-25T04:32:26.111Z,100574.20
2018-03-25T04:34:55.166Z,100584.65
2018-03-25T04:37:23.280Z,100588.55
2018-03-25T04:39:51.381Z,100593.28
2018-03-25T04:42:19.495Z,100593.91
2018-03-25T04:44:47.623Z,100588.98
2018-03-25T04:47:15.739Z,100591.12
2018-03-25T04:49:43.834Z,100585.98
2018-03-25T04:52:11.964Z,100595.38
2018-03-25T04:54:40.067Z,100593.53
2018-03-25T04:57:08.195Z,100595.91
2018-03-25T04:59:36.303Z,100589.34
2018-03-25T05:02:04.443Z,100595.58
2018-03-25T05:04:32.583Z,100594.09
2018-03-25T05:07:00.779Z,100605.73
2018-03-25T05:09:28.895Z,100601.08
2018-03-25T05:11:56.989Z,100603.79
2018-03-25T05:14:25.134Z,100604.03
2018-03-25T05:16:53.647Z,100606.27
2018-03-25T05:19:21.739Z,100602.14
2018-03-25T05:21:49.900Z,100601.34
2018-03-25T05:24:18.005Z,100607.23
2018-03-25T05:26:46.097Z,100607.66
2018-03-25T05:29:14.200Z,100613.21
2018-03-25T05:31:42.333Z,100606.41
2018-03-25T05:34:10.489Z,100612.25
2018-03-25T05:36:38.857Z,100618.24
2018-03-25T05:39:06.955Z,100625.79
2018-03-25T05:41:35.060Z,100625.70
2018-03-25T05:44:03.157Z,100631.17
2018-03-25T05:46:31.252Z,100620.91
2018-03-25T05:48:59.370Z,100622.12
2018-03-25T05:51:27.465Z,100633.02
2018-03-25T05:53:55.594Z,100630.13
2018-03-25T05:56:23.674Z,100637.33
2018-03-25T05:58:51.783Z,100633.87
2018-03-25T06:01:19.930Z,100642.75
2018-03-25T06:03:48.001Z,100649.16
2018-03-25T06:06:16.109Z,100652.16
2018-03-25T06:08:44.211Z,100660.71
2018-03-25T06:11:12.368Z,100661.13
2018-03-25T06:13:40.452Z,100656.92
2018-03-25T06:16:08.595Z,100661.95
2018-03-25T06:18:36.723Z,100665.55
2018-03-25T06:21:04.837Z,100668.36
2018-03-25T06:23:32.938Z,100669.16
2018-03-25T06:26:01.060Z,100675.20
2018-03-25T06:28:29.192Z,100678.80
2018-03-25T06:30:57.283Z,100683.03
2018-03-25T06:33:25.405Z,100687.80
2018-03-25T06:35:53.501Z,100690.78
2018-03-25T06:38:21.605Z,100693.92
2018-03-25T06:40:50.529Z,100697.92
2018-03-25T06:43:18.628Z,100700.34
2018-03-25T06:45:46.735Z,100702.90
2018-03-25T06:48:14.831Z,100714.17
2018-03-25T06:50:42.920Z,100706.38
2018-03-25T06:53:11.091Z,100714.92
2018-03-25T06:55:39.171Z,100717.01
2018-03-25T06:58:07.806Z,100725.95
2018-03-25T07:00:35.905Z,100736.23
2018-03-25T07:03:04.007Z,100744.55
2018-03-25T07:05:32.115Z,100742.07
2018-03-25T07:08:00.239Z,100749.92
2018-03-25T07:10:28.331Z,100750.95
2018-03-25T07:12:56.431Z,100755.05
2018-03-25T07:15:24.546Z,100755.42
2018-03-25T07:17:52.645Z,100757.72
2018-03-25T07:20:20.750Z,100763.03
2018-03-25T07:22:48.873Z,100760.18
2018-03-25T07:25:17.032Z,100763.27
2018-03-25T07:27:45.132Z,100761.41
2018-03-25T07:30:13.276Z,100762.03
2018-03-25T07:32:41.355Z,100768.31
2018-03-25T07:35:09.487Z,100770.30
2018-03-25T07:37:37.640Z,100773.22
2018-03-25T07:40:11.161Z,100775.40
2018-03-25T07:42:39.297Z,100780.29
2018-03-25T07:45:07.411Z,100781.05
2018-03-25T07:47:35.505Z,100790.66
2018-03-25T07:50:03.687Z,100788.66
2018-03-25T07:52:31.713Z,100782.14
2018-03-25T07:54:59.830Z,100784.95
2018-03-25T07:57:27.957Z,100787.50
2018-03-25T07:59:56.125Z,100794.97
2018-03-25T08:02:24.781Z,100795.73
2018-03-25T08:04:52.917Z,100797.44
2018-03-25T08:07:21.023Z,100802.11
2018-03-25T08:09:49.135Z,100799.77
2018-03-25T08:12:17.765Z,100809.06
2018-03-25T08:14:45.880Z,100812.73
2018-03-25T08:17:13.971Z,100812.06
2018-03-25T08:19:42.084Z,100820.34
2018-03-25T08:22:10.224Z,100820.30
2018-03-25T08:24:38.339Z,100828.28
2018-03-25T08:27:06.457Z,100824.60
2018-03-25T08:29:34.560Z,100828.12
2018-03-25T08:32:02.707Z,100824.70
2018-03-25T08:34:30.801Z,100826.84
2018-03-25T08:36:58.898Z,100832.38
2018-03-25T08:39:27.030Z,100832.20
2018-03-25T08:41:55.135Z,100834.53
2018-03-25T08:44:24.161Z,100833.77
2018-03-25T08:46:53.215Z,100833.18
2018-03-25T08:49:21.331Z,100836.55
2018-03-25T08:51:49.436Z,100831.66
2018-03-25T08:54:17.589Z,100836.35
2018-03-25T08:56:46.581Z,100848.27
2018-03-25T08:59:14.691Z,100849.78
2018-03-25T09:01:42.806Z,100850.16
2018-03-25T09:04:10.910Z,100852.23
2018-03-25T09:06:38.993Z,100855.71
2018-03-25T09:09:07.352Z,100857.35
2018-03-25T09:11:36.263Z,100852.78
2018-03-25T09:14:04.435Z,100857.14
2018-03-25T09:16:32.865Z,100862.23
2018-03-25T09:19:00.957Z,100857.00
2018-03-25T09:21:29.063Z,100855.85
2018-03-25T09:23:57.479Z,100855.75
2018-03-25T09:26:25.579Z,100865.89
2018-03-25T09:28:53.678Z,100856.81
2018-03-25T09:31:21.801Z,100863.66
2018-03-25T09:33:49.936Z,100866.05
2018-03-25T09:36:18.908Z,100870.27
2018-03-25T09:38:47.039Z,100872.77
2018-03-25T09:41:15.175Z,100872.22
2018-03-25T09:43:43.276Z,100871.31
2018-03-25T09:46:11.395Z,100871.33
2018-03-25T09:48:39.497Z,100876.89
2018-03-25T09:51:08.505Z,100872.88
2018-03-25T09:53:36.625Z,100873.24
2018-03-25T09:56:04.861Z,100872.50
2018-03-25T09:58:33.005Z,100878.03
2018-03-25T10:01:06.644Z,100885.78
2018-03-25T10:03:34.746Z,100881.81
2018-03-25T10:06:02.839Z,100891.14
2018-03-25T10:08:30.955Z,100887.41
2018-03-25T10:10:59.065Z,100895.02
2018-03-25T10:13:27.163Z,100894.95
2018-03-25T10:15:55.286Z,100897.16
2018-03-25T10:18:23.638Z,100901.84
2018-03-25T10:20:51.753Z,100893.71
2018-03-25T10:23:20.957Z,100899.52
2018-03-25T10:25:49.097Z,100905.84
2018-03-25T10:28:17.250Z,100904.69
2018-03-25T10:30:45.360Z,100905.30
2018-03-25T10:33:13.477Z,100912.03
2018-03-25T10:35:41.575Z,100911.13
2018-03-25T10:38:09.840Z,100912.84
2018-03-25T10:40:37.951Z,100910.36
2018-03-25T10:43:06.075Z,100896.10
2018-03-25T10:45:34.205Z,100904.07
2018-03-25T10:48:02.312Z,100897.15
2018-03-25T10:50:31.434Z,100899.25
2018-03-25T10:52:59.609Z,100902.20
2018-03-25T10:55:27.783Z,100901.02
2018-03-25T10:57:55.881Z,100905.47
2018-03-25T11:00:24.076Z,100907.59
2018-03-25T11:02:52.181Z,100907.48
2018-03-25T11:05:20.325Z,100909.43
2018-03-25T11:07:48.473Z,100910.34
2018-03-25T11:23:16.631Z,100918.19
2018-03-25T11:25:45.058Z,100923.06
2018-03-25T11:28:13.157Z,100923.89
2018-03-25T11:30:41.343Z,100925.59
2018-03-25T11:33:09.604Z,100919.14
2018-03-25T11:35:37.699Z,100929.22
2018-03-25T11:38:05.815Z,100931.06
2018-03-25T11:40:34.008Z,100933.80
2018-03-25T11:43:02.135Z,100925.65
2018-03-25T11:45:30.247Z,100932.81
2018-03-25T11:47:58.390Z,100936.67
2018-03-25T11:50:26.581Z,100936.34
2018-03-25T11:52:54.753Z,100934.50
2018-03-25T11:55:22.907Z,100936.14
2018-03-25T11:57:51.065Z,100936.77
2018-03-25T12:00:19.280Z,100934.90
2018-03-25T12:02:47.461Z,100935.33
2018-03-25T12:05:15.572Z,100936.86
2018-03-25T12:07:43.762Z,100941.30
2018-03-25T12:10:11.903Z,100943.10
2018-03-25T12:12:40.091Z,100942.30
2018-03-25T12:15:08.223Z,100938.59
2018-03-25T12:17:36.362Z,100943.69
2018-03-25T12:20:04.513Z,100940.70
2018-03-25T12:22:32.650Z,100937.16
2018-03-25T12:25:00.809Z,100944.99
2018-03-25T12:27:28.988Z,100948.61
2018-03-25T12:29:57.152Z,100945.42
2018-03-25T12:32:25.327Z,100944.23
2018-03-25T12:34:53.423Z,100946.35
2018-03-25T12:37:21.549Z,100944.84
2018-03-25T12:39:50.153Z,100951.77
2018-03-25T12:42:18.251Z,100948.10
2018-03-25T12:44:46.397Z,100945.41
2018-03-25T12:47:14.485Z,100952.36
2018-03-25T13:02:42.621Z,100959.23
2018-03-25T13:05:10.733Z,100948.82
2018-03-25T13:07:39.871Z,100950.77
2018-03-25T13:10:08.068Z,100953.66
2018-03-25T13:12:36.183Z,100949.28
2018-03-25T13:15:04.281Z,100956.84
2018-03-25T13:17:32.444Z,100954.50
2018-03-25T13:20:01.322Z,100952.54
2018-03-25T13:22:29.516Z,100955.86
2018-03-25T13:24:57.562Z,100959.31
2018-03-25T13:27:25.678Z,100961.77
2018-03-25T13:29:53.808Z,100961.56
2018-03-25T13:32:21.914Z,100957.47
2018-03-25T13:34:50.132Z,100964.45
2018-03-25T13:37:18.277Z,100971.32
2018-03-25T13:39:46.328Z,100972.77
2018-03-25T13:42:14.702Z,100970.19
2018-03-25T13:44:42.850Z,100972.72
2018-03-25T13:47:11.818Z,100975.20
2018-03-25T13:49:39.952Z,100965.12
2018-03-25T13:52:08.258Z,100974.02
2018-03-25T13:54:36.370Z,100975.03
2018-03-25T13:57:04.473Z,100963.72
2018-03-25T13:59:32.740Z,100977.09
2018-03-25T14:02:00.895Z,100973.59
2018-03-25T14:04:29.039Z,100978.73
2018-03-25T14:06:57.154Z,100979.77
2018-03-25T14:09:25.292Z,100985.63
2018-03-25T14:11:53.382Z,100982.45
2018-03-25T14:14:21.565Z,100984.92
2018-03-25T14:16:49.746Z,100981.98
2018-03-25T14:19:17.954Z,100971.00
2018-03-25T14:21:46.209Z,100981.97
2018-03-25T14:24:14.419Z,100979.23
2018-03-25T14:26:42.642Z,100986.95
2018-03-25T14:29:10.765Z,100978.43
2018-03-25T14:31:38.997Z,100975.34
2018-03-25T14:34:07.112Z,100989.56
2018-03-25T14:36:35.342Z,100967.72
2018-03-25T14:39:03.806Z,100982.53
2018-03-25T14:41:32.083Z,100994.23
2018-03-25T14:44:00.256Z,101004.95
2018-03-25T14:46:28.369Z,100993.73
2018-03-25T14:48:56.692Z,100992.17
2018-03-25T14:51:24.847Z,101003.11
2018-03-25T14:53:52.999Z,100998.81
2018-03-25T14:56:22.045Z,100999.79
2018-03-25T14:58:50.214Z,100999.73
2018-03-25T15:01:18.419Z,101005.34
2018-03-25T15:03:46.580Z,101003.78
2018-03-25T15:06:15.033Z,101004.22
2018-03-25T15:08:43.270Z,101014.50
2018-03-25T15:11:11.386Z,101019.08
2018-03-25T15:13:39.643Z,101020.88
2018-03-25T15:16:07.782Z,101010.94
2018-03-25T15:18:36.072Z,101018.00
2018-03-25T15:21:04.443Z,101029.21
2018-03-25T15:23:32.575Z,101043.27
2018-03-25T15:26:01.792Z,101032.09
2018-03-25T15:28:30.068Z,101025.46
2018-03-25T15:30:58.370Z,101018.40
2018-03-25T15:33:26.764Z,101029.77
2018-03-25T15:35:56.903Z,101041.94
2018-03-25T15:38:25.026Z,101035.87
2018-03-25T15:40:54.205Z,101037.02
2018-03-25T15:43:22.331Z,101054.73
2018-03-25T15:45:50.521Z,101048.23
2018-03-25T16:01:18.712Z,101056.06
2018-03-25T16:03:47.764Z,101061.39
2018-03-25T16:06:15.916Z,101062.57
2018-03-25T16:08:44.070Z,101073.03
2018-03-25T16:11:12.176Z,101068.94
2018-03-25T16:13:40.673Z,101065.62
2018-03-25T16:16:09.538Z,101069.80
2018-03-25T16:18:37.690Z,101073.20
2018-03-25T16:21:05.864Z,101072.41
2018-03-25T16:23:34.078Z,101080.59
2018-03-25T16:26:02.396Z,101064.22
2018-03-25T16:28:30.752Z,101075.19
2018-03-25T16:30:59.127Z,101079.42
2018-03-25T16:33:32.231Z,101088.80
2018-03-25T16:36:00.404Z,101084.63
2018-03-25T16:38:29.234Z,101103.98
2018-03-25T16:40:57.524Z,101095.88
2018-03-25T16:46:11.587Z,101086.86
2018-03-25T16:48:39.949Z,101094.36
2018-03-25T16:51:08.074Z,101092.42
2018-03-25T16:53:36.508Z,101098.78
2018-03-25T16:56:04.822Z,101108.02
2018-03-25T16:58:32.947Z,101100.88
2018-03-25T17:01:01.063Z,101113.16
2018-03-25T17:03:30.043Z,101113.86
2018-03-25T17:05:58.215Z,101127.08
2018-03-25T17:08:26.327Z,101117.28
2018-03-25T17:10:54.475Z,101113.11
2018-03-25T17:13:22.615Z,101120.28
2018-03-25T17:15:50.715Z,101125.47
2018-03-25T17:18:18.835Z,101128.67
2018-03-25T17:20:47.016Z,101137.39
2018-03-25T17:23:15.281Z,101135.26
2018-03-25T17:25:43.375Z,101133.70
2018-03-25T17:28:11.571Z,101146.41
2018-03-25T17:30:39.766Z,101149.94
2018-03-25T17:33:08.033Z,101147.05
2018-03-25T17:35:36.186Z,101152.45
2018-03-25T17:38:04.343Z,101161.71
2018-03-25T17:40:33.398Z,101157.48
2018-03-25T17:43:02.427Z,101167.80
2018-03-25T17:45:30.690Z,101168.23
2018-03-25T17:47:58.940Z,101166.14
2018-03-25T17:50:27.141Z,101163.53
2018-03-25T17:52:55.235Z,101169.13
2018-03-25T17:55:23.680Z,101170.27
2018-03-25T17:57:51.796Z,101175.56
2018-03-25T18:00:19.897Z,101179.67
2018-03-25T18:02:48.038Z,101183.78
2018-03-25T18:18:11.322Z,101196.11
2018-03-25T18:20:39.459Z,101204.13
2018-03-25T18:23:07.553Z,101210.48
2018-03-25T18:25:36.191Z,101209.38
2018-03-25T18:28:04.325Z,101219.48
2018-03-25T18:30:32.445Z,101214.67
2018-03-25T18:33:01.250Z,101225.38
2018-03-25T18:35:29.531Z,101226.58
2018-03-25T18:37:57.627Z,101231.41
2018-03-25T18:40:25.735Z,101228.16
2018-03-25T18:42:54.557Z,101235.08
2018-03-25T18:45:22.984Z,101231.80
2018-03-25T18:47:51.142Z,101246.40
2018-03-25T18:50:19.291Z,101244.77
2018-03-25T18:52:47.514Z,101252.06
2018-03-25T18:55:16.779Z,101257.91
2018-03-25T18:57:45.045Z,101262.05
2018-03-25T19:00:14.173Z,101264.72
2018-03-25T19:02:42.493Z,101264.41
2018-03-25T19:05:10.641Z,101267.05
2018-03-25T19:07:38.977Z,101269.89
2018-03-25T19:10:07.738Z,101267.71
2018-03-25T19:12:36.093Z,101275.05
2018-03-25T19:15:05.411Z,101283.65
2018-03-25T19:17:33.799Z,101287.09
2018-03-25T19:20:02.543Z,101290.94
2018-03-25T19:22:30.755Z,101287.36
2018-03-25T19:24:59.003Z,101291.84
2018-03-25T19:27:28.103Z,101294.20
2018-03-25T19:29:56.545Z,101287.06
2018-03-25T19:32:24.676Z,101288.88
2018-03-25T19:34:52.828Z,101293.59
2018-03-25T19:37:21.264Z,101286.20
2018-03-25T19:39:49.685Z,101288.75
2018-03-25T19:42:17.801Z,101290.59
2018-03-25T19:44:46.249Z,101305.08
2018-03-25T19:47:14.484Z,101301.67
2018-03-25T19:49:42.921Z,101300.00
2018-03-25T19:52:11.001Z,101306.20
2018-03-25T19:54:41.447Z,101301.94
2018-03-25T19:57:11.062Z,101305.72
2018-03-25T19:59:40.918Z,101299.87
2018-03-25T20:02:14.202Z,101311.44
2018-03-25T20:04:42.413Z,101316.67
2018-03-25T20:07:10.547Z,101325.98
2018-03-25T20:09:39.017Z,101327.75
2018-03-25T20:12:07.421Z,101331.08
2018-03-25T20:14:35.529Z,101339.41
2018-03-25T20:17:04.385Z,101331.48
2018-03-25T20:19:32.497Z,101340.30
2018-03-25T20:22:00.621Z,101339.23
2018-03-25T20:24:28.745Z,101340.22
2018-03-25T20:26:56.973Z,101339.16
2018-03-25T20:29:25.065Z,101342.80
2018-03-25T20:31:53.456Z,101339.36
2018-03-25T20:34:22.418Z,101338.27
2018-03-25T20:36:50.583Z,101340.65
2018-03-25T20:39:18.714Z,101342.34
2018-03-25T20:41:46.839Z,101342.45
2018-03-25T20:44:15.319Z,101349.80
2018-03-25T20:46:44.200Z,101354.41
2018-03-25T20:49:13.163Z,101353.75
2018-03-25T20:51:41.274Z,101350.66
2018-03-25T20:54:09.365Z,101362.69
2018-03-25T20:56:37.465Z,101364.45
2018-03-25T20:59:05.589Z,101362.96
2018-03-25T21:01:33.687Z,101360.66
2018-03-25T21:04:02.454Z,101354.65
2018-03-25T21:06:30.700Z,101360.62
2018-03-25T21:08:58.785Z,101364.39
2018-03-25T21:11:26.883Z,101367.41
2018-03-25T21:13:55.631Z,101369.70
2018-03-25T21:16:24.171Z,101357.32
2018-03-25T21:18:52.286Z,101366.64
2018-03-25T21:21:21.191Z,101368.94
2018-03-25T21:23:49.319Z,101373.02
2018-03-25T21:26:17.412Z,101377.71
2018-03-25T21:28:45.553Z,101372.42
2018-03-25T21:31:13.650Z,101375.38
2018-03-25T21:33:42.062Z,101380.75
2018-03-25T21:36:10.293Z,101386.14
2018-03-25T21:38:38.459Z,101385.10
2018-03-25T21:41:06.572Z,101392.45
2018-03-25T21:43:34.684Z,101388.95
2018-03-25T21:46:02.779Z,101391.71
2018-03-25T21:48:30.909Z,101383.39
2018-03-25T21:50:59.019Z,101389.08
2018-03-25T21:53:27.124Z,101386.27
2018-03-25T22:08:50.242Z,101386.80
2018-03-25T22:11:18.964Z,101389.89
2018-03-25T22:13:47.065Z,101391.43
2018-03-25T22:16:15.207Z,101390.95
2018-03-25T22:18:54.999Z,101395.52
2018-03-25T22:21:23.158Z,101399.70
2018-03-25T22:23:51.263Z,101396.12
2018-03-25T22:26:19.367Z,101394.25
2018-03-25T22:28:47.487Z,101394.89
2018-03-25T22:31:15.581Z,101396.19
2018-03-25T22:33:43.699Z,101394.83
2018-03-25T22:36:11.977Z,101393.09
2018-03-25T22:38:40.744Z,101393.13
2018-03-25T22:41:08.835Z,101390.16
2018-03-25T22:43:36.945Z,101389.63
2018-03-25T22:46:05.071Z,101393.26
2018-03-25T22:48:33.161Z,101392.63
2018-03-25T22:51:01.315Z,101393.86
2018-03-25T22:53:29.399Z,101395.45
2018-03-25T22:55:57.488Z,101393.09
2018-03-25T22:58:25.909Z,101398.36
2018-03-25T23:00:54.011Z,101395.72
2018-03-25T23:03:22.107Z,101397.67
2018-03-25T23:05:51.067Z,101396.11
2018-03-25T23:08:19.405Z,101396.44
2018-03-25T23:10:47.516Z,101399.10
2018-03-25T23:13:15.625Z,101396.69
2018-03-25T23:15:44.229Z,101401.92
2018-03-25T23:18:12.618Z,101398.45
2018-03-25T23:20:40.723Z,101399.56
2018-03-25T23:23:08.855Z,101397.22
2018-03-25T23:25:36.982Z,101393.70
2018-03-25T23:28:05.083Z,101394.87
2018-03-25T23:30:33.193Z,101391.96
2018-03-25T23:33:01.309Z,101390.53
2018-03-25T23:35:29.407Z,101394.41
2018-03-25T23:37:57.493Z,101392.77
2018-03-25T23:40:25.609Z,101390.57
2018-03-25T23:42:53.733Z,101389.55
2018-03-25T23:45:21.837Z,101382.87
2018-03-25T23:47:49.979Z,101385.16
2018-03-25T23:50:18.073Z,101391.19
2018-03-25T23:52:46.757Z,101384.38
2018-03-25T23:55:14.849Z,101393.63
2018-03-25T23:57:43.215Z,101392.27
